sensor_id;sensor_type;location;lat;lon;timestamp;P1;durP1;ratioP1;P2;durP2;ratioP2
21272;SDS011;36726;52.328;10.552;2023-04-24T00:00:26;1.50;;;1.00;;
21272;SDS011;36726;52.328;10.552;2023-04-24T00:02:52;1.63;;;0.90;;
21272;SDS011;36726;52.328;10.552;2023-04-24T00:05:23;4.22;;;0.95;;
21272;SDS011;36726;52.328;10.552;2023-04-24T00:07:50;0.75;;;0.75;;
21272;SDS011;36726;52.328;10.552;2023-04-24T00:10:19;1.25;;;0.70;;
21272;SDS011;36726;52.328;10.552;2023-04-24T00:12:45;0.90;;;0.68;;
21272;SDS011;36726;52.328;10.552;2023-04-24T00:15:12;0.47;;;0.47;;
21272;SDS011;36726;52.328;10.552;2023-04-24T00:17:39;1.20;;;0.85;;
21272;SDS011;36726;52.328;10.552;2023-04-24T00:20:06;0.70;;;0.70;;
21272;SDS011;36726;52.328;10.552;2023-04-24T00:22:33;0.98;;;0.80;;
21272;SDS011;36726;52.328;10.552;2023-04-24T00:24:59;0.80;;;0.73;;
21272;SDS011;36726;52.328;10.552;2023-04-24T00:27:26;1.25;;;0.80;;
21272;SDS011;36726;52.328;10.552;2023-04-24T00:29:53;1.33;;;0.60;;
21272;SDS011;36726;52.328;10.552;2023-04-24T00:32:20;1.35;;;0.80;;
21272;SDS011;36726;52.328;10.552;2023-04-24T00:34:47;0.88;;;0.60;;
21272;SDS011;36726;52.328;10.552;2023-04-24T00:37:14;1.10;;;0.80;;
21272;SDS011;36726;52.328;10.552;2023-04-24T00:39:43;0.57;;;0.55;;
21272;SDS011;36726;52.328;10.552;2023-04-24T00:42:10;1.10;;;0.70;;
21272;SDS011;36726;52.328;10.552;2023-04-24T00:44:38;4.20;;;0.88;;
21272;SDS011;36726;52.328;10.552;2023-04-24T00:47:05;1.92;;;0.98;;
21272;SDS011;36726;52.328;10.552;2023-04-24T00:49:32;3.17;;;1.00;;
21272;SDS011;36726;52.328;10.552;2023-04-24T00:51:59;1.60;;;1.13;;
21272;SDS011;36726;52.328;10.552;2023-04-24T00:54:26;1.10;;;1.00;;
21272;SDS011;36726;52.328;10.552;2023-04-24T00:56:53;1.45;;;0.98;;
21272;SDS011;36726;52.328;10.552;2023-04-24T00:59:19;4.00;;;1.13;;
21272;SDS011;36726;52.328;10.552;2023-04-24T01:01:46;1.27;;;0.80;;
21272;SDS011;36726;52.328;10.552;2023-04-24T01:04:13;1.20;;;0.68;;
21272;SDS011;36726;52.328;10.552;2023-04-24T01:06:40;2.00;;;0.70;;
21272;SDS011;36726;52.328;10.552;2023-04-24T01:09:09;0.90;;;0.55;;
21272;SDS011;36726;52.328;10.552;2023-04-24T01:11:38;1.67;;;0.60;;
21272;SDS011;36726;52.328;10.552;2023-04-24T01:14:04;2.15;;;0.88;;
21272;SDS011;36726;52.328;10.552;2023-04-24T01:16:31;3.03;;;0.50;;
21272;SDS011;36726;52.328;10.552;2023-04-24T01:18:59;1.33;;;0.50;;
21272;SDS011;36726;52.328;10.552;2023-04-24T01:21:26;0.60;;;0.60;;
21272;SDS011;36726;52.328;10.552;2023-04-24T01:23:56;0.70;;;0.68;;
21272;SDS011;36726;52.328;10.552;2023-04-24T01:26:23;0.68;;;0.50;;
21272;SDS011;36726;52.328;10.552;2023-04-24T01:28:51;0.75;;;0.60;;
21272;SDS011;36726;52.328;10.552;2023-04-24T01:31:21;0.93;;;0.80;;
21272;SDS011;36726;52.328;10.552;2023-04-24T01:33:49;1.60;;;0.70;;
21272;SDS011;36726;52.328;10.552;2023-04-24T01:36:17;1.60;;;0.80;;
21272;SDS011;36726;52.328;10.552;2023-04-24T01:38:44;1.05;;;0.70;;
21272;SDS011;36726;52.328;10.552;2023-04-24T01:41:12;1.10;;;0.70;;
21272;SDS011;36726;52.328;10.552;2023-04-24T01:43:39;1.30;;;0.70;;
21272;SDS011;36726;52.328;10.552;2023-04-24T01:46:06;0.82;;;0.77;;
21272;SDS011;36726;52.328;10.552;2023-04-24T01:48:35;1.20;;;0.50;;
21272;SDS011;36726;52.328;10.552;2023-04-24T01:51:02;1.20;;;0.80;;
21272;SDS011;36726;52.328;10.552;2023-04-24T01:53:28;0.90;;;0.70;;
21272;SDS011;36726;52.328;10.552;2023-04-24T01:55:55;1.23;;;0.80;;
21272;SDS011;36726;52.328;10.552;2023-04-24T01:58:23;0.88;;;0.80;;
21272;SDS011;36726;52.328;10.552;2023-04-24T02:00:50;1.38;;;0.60;;
21272;SDS011;36726;52.328;10.552;2023-04-24T02:03:17;1.38;;;1.00;;
21272;SDS011;36726;52.328;10.552;2023-04-24T02:05:44;0.80;;;0.70;;
21272;SDS011;36726;52.328;10.552;2023-04-24T02:08:11;2.90;;;0.80;;
21272;SDS011;36726;52.328;10.552;2023-04-24T02:10:38;1.83;;;0.90;;
21272;SDS011;36726;52.328;10.552;2023-04-24T02:13:04;2.28;;;1.10;;
21272;SDS011;36726;52.328;10.552;2023-04-24T02:15:31;1.63;;;0.95;;
21272;SDS011;36726;52.328;10.552;2023-04-24T02:17:58;1.70;;;0.80;;
21272;SDS011;36726;52.328;10.552;2023-04-24T02:20:24;1.80;;;0.90;;
21272;SDS011;36726;52.328;10.552;2023-04-24T02:22:52;0.82;;;0.77;;
21272;SDS011;36726;52.328;10.552;2023-04-24T02:25:18;2.67;;;0.88;;
21272;SDS011;36726;52.328;10.552;2023-04-24T02:27:45;1.52;;;1.02;;
21272;SDS011;36726;52.328;10.552;2023-04-24T02:30:12;2.22;;;0.70;;
21272;SDS011;36726;52.328;10.552;2023-04-24T02:32:39;1.10;;;0.63;;
21272;SDS011;36726;52.328;10.552;2023-04-24T02:35:09;3.53;;;0.90;;
21272;SDS011;36726;52.328;10.552;2023-04-24T02:37:36;2.47;;;1.00;;
21272;SDS011;36726;52.328;10.552;2023-04-24T02:40:03;0.82;;;0.73;;
21272;SDS011;36726;52.328;10.552;2023-04-24T02:42:32;0.95;;;0.60;;
21272;SDS011;36726;52.328;10.552;2023-04-24T02:44:59;1.40;;;1.08;;
21272;SDS011;36726;52.328;10.552;2023-04-24T02:47:26;1.33;;;1.05;;
21272;SDS011;36726;52.328;10.552;2023-04-24T02:49:53;1.58;;;1.05;;
21272;SDS011;36726;52.328;10.552;2023-04-24T02:52:19;1.45;;;1.00;;
21272;SDS011;36726;52.328;10.552;2023-04-24T02:54:46;1.17;;;0.80;;
21272;SDS011;36726;52.328;10.552;2023-04-24T02:57:13;0.80;;;0.70;;
21272;SDS011;36726;52.328;10.552;2023-04-24T02:59:41;1.00;;;0.77;;
21272;SDS011;36726;52.328;10.552;2023-04-24T03:02:08;0.95;;;0.80;;
21272;SDS011;36726;52.328;10.552;2023-04-24T03:04:35;1.65;;;0.90;;
21272;SDS011;36726;52.328;10.552;2023-04-24T03:07:01;2.42;;;1.13;;
21272;SDS011;36726;52.328;10.552;2023-04-24T03:09:28;0.70;;;0.63;;
21272;SDS011;36726;52.328;10.552;2023-04-24T03:11:54;0.80;;;0.65;;
21272;SDS011;36726;52.328;10.552;2023-04-24T03:14:23;1.10;;;1.00;;
21272;SDS011;36726;52.328;10.552;2023-04-24T03:16:50;1.20;;;0.85;;
21272;SDS011;36726;52.328;10.552;2023-04-24T03:19:16;1.67;;;1.10;;
21272;SDS011;36726;52.328;10.552;2023-04-24T03:21:54;1.88;;;0.98;;
21272;SDS011;36726;52.328;10.552;2023-04-24T03:24:21;1.00;;;0.90;;
21272;SDS011;36726;52.328;10.552;2023-04-24T03:26:49;1.48;;;0.80;;
21272;SDS011;36726;52.328;10.552;2023-04-24T03:29:35;1.30;;;0.70;;
21272;SDS011;36726;52.328;10.552;2023-04-24T03:32:02;1.60;;;0.70;;
21272;SDS011;36726;52.328;10.552;2023-04-24T03:34:29;0.85;;;0.80;;
21272;SDS011;36726;52.328;10.552;2023-04-24T03:36:56;0.88;;;0.70;;
21272;SDS011;36726;52.328;10.552;2023-04-24T03:39:24;1.05;;;0.82;;
21272;SDS011;36726;52.328;10.552;2023-04-24T03:41:54;1.60;;;1.10;;
21272;SDS011;36726;52.328;10.552;2023-04-24T03:44:25;1.10;;;0.80;;
21272;SDS011;36726;52.328;10.552;2023-04-24T03:46:52;0.80;;;0.70;;
21272;SDS011;36726;52.328;10.552;2023-04-24T03:49:21;1.45;;;0.68;;
21272;SDS011;36726;52.328;10.552;2023-04-24T03:51:48;4.22;;;0.80;;
21272;SDS011;36726;52.328;10.552;2023-04-24T03:54:23;1.10;;;0.80;;
21272;SDS011;36726;52.328;10.552;2023-04-24T03:56:51;1.98;;;0.65;;
21272;SDS011;36726;52.328;10.552;2023-04-24T03:59:18;1.35;;;0.60;;
21272;SDS011;36726;52.328;10.552;2023-04-24T04:01:52;2.63;;;0.88;;
21272;SDS011;36726;52.328;10.552;2023-04-24T04:04:19;1.38;;;0.65;;
21272;SDS011;36726;52.328;10.552;2023-04-24T04:06:46;0.98;;;0.88;;
21272;SDS011;36726;52.328;10.552;2023-04-24T04:09:13;1.05;;;0.68;;
21272;SDS011;36726;52.328;10.552;2023-04-24T04:11:40;0.90;;;0.50;;
21272;SDS011;36726;52.328;10.552;2023-04-24T04:14:06;1.20;;;0.65;;
21272;SDS011;36726;52.328;10.552;2023-04-24T04:16:35;0.88;;;0.60;;
21272;SDS011;36726;52.328;10.552;2023-04-24T04:19:06;1.20;;;0.50;;
21272;SDS011;36726;52.328;10.552;2023-04-24T04:21:33;0.50;;;0.50;;
21272;SDS011;36726;52.328;10.552;2023-04-24T04:24:08;1.20;;;0.65;;
21272;SDS011;36726;52.328;10.552;2023-04-24T04:26:40;0.70;;;0.50;;
21272;SDS011;36726;52.328;10.552;2023-04-24T04:29:09;0.60;;;0.60;;
21272;SDS011;36726;52.328;10.552;2023-04-24T04:31:40;0.95;;;0.50;;
21272;SDS011;36726;52.328;10.552;2023-04-24T04:34:11;0.95;;;0.45;;
21272;SDS011;36726;52.328;10.552;2023-04-24T04:36:40;1.13;;;0.50;;
21272;SDS011;36726;52.328;10.552;2023-04-24T04:39:20;1.75;;;0.52;;
21272;SDS011;36726;52.328;10.552;2023-04-24T04:41:57;0.70;;;0.50;;
21272;SDS011;36726;52.328;10.552;2023-04-24T04:44:30;0.60;;;0.60;;
21272;SDS011;36726;52.328;10.552;2023-04-24T04:46:58;1.00;;;0.50;;
21272;SDS011;36726;52.328;10.552;2023-04-24T04:49:30;0.70;;;0.50;;
21272;SDS011;36726;52.328;10.552;2023-04-24T04:51:57;0.95;;;0.70;;
21272;SDS011;36726;52.328;10.552;2023-04-24T04:54:25;1.13;;;0.60;;
21272;SDS011;36726;52.328;10.552;2023-04-24T04:56:55;1.27;;;0.63;;
21272;SDS011;36726;52.328;10.552;2023-04-24T04:59:23;1.00;;;0.60;;
21272;SDS011;36726;52.328;10.552;2023-04-24T05:01:55;1.40;;;0.60;;
21272;SDS011;36726;52.328;10.552;2023-04-24T05:04:22;1.13;;;0.73;;
21272;SDS011;36726;52.328;10.552;2023-04-24T05:06:49;1.42;;;0.82;;
21272;SDS011;36726;52.328;10.552;2023-04-24T05:09:17;1.15;;;0.70;;
21272;SDS011;36726;52.328;10.552;2023-04-24T05:11:52;1.10;;;0.57;;
21272;SDS011;36726;52.328;10.552;2023-04-24T05:14:21;2.40;;;0.68;;
21272;SDS011;36726;52.328;10.552;2023-04-24T05:16:48;1.15;;;0.68;;
21272;SDS011;36726;52.328;10.552;2023-04-24T05:19:18;5.07;;;0.70;;
21272;SDS011;36726;52.328;10.552;2023-04-24T05:21:45;0.63;;;0.45;;
21272;SDS011;36726;52.328;10.552;2023-04-24T05:24:11;2.03;;;0.70;;
21272;SDS011;36726;52.328;10.552;2023-04-24T05:26:49;1.50;;;1.05;;
21272;SDS011;36726;52.328;10.552;2023-04-24T05:29:21;2.22;;;0.95;;
21272;SDS011;36726;52.328;10.552;2023-04-24T05:31:48;2.72;;;1.08;;
21272;SDS011;36726;52.328;10.552;2023-04-24T05:34:15;1.67;;;1.13;;
21272;SDS011;36726;52.328;10.552;2023-04-24T05:36:44;1.88;;;0.98;;
21272;SDS011;36726;52.328;10.552;2023-04-24T05:39:11;2.50;;;1.17;;
21272;SDS011;36726;52.328;10.552;2023-04-24T05:41:38;1.80;;;1.08;;
21272;SDS011;36726;52.328;10.552;2023-04-24T05:44:04;2.60;;;1.10;;
21272;SDS011;36726;52.328;10.552;2023-04-24T05:46:31;2.33;;;1.13;;
21272;SDS011;36726;52.328;10.552;2023-04-24T05:48:58;3.55;;;1.20;;
21272;SDS011;36726;52.328;10.552;2023-04-24T05:51:25;3.85;;;1.30;;
21272;SDS011;36726;52.328;10.552;2023-04-24T05:53:52;1.55;;;1.30;;
21272;SDS011;36726;52.328;10.552;2023-04-24T05:56:19;4.78;;;1.30;;
21272;SDS011;36726;52.328;10.552;2023-04-24T05:58:48;2.15;;;1.00;;
21272;SDS011;36726;52.328;10.552;2023-04-24T06:01:15;1.88;;;1.00;;
21272;SDS011;36726;52.328;10.552;2023-04-24T06:03:46;1.40;;;0.90;;
21272;SDS011;36726;52.328;10.552;2023-04-24T06:06:12;1.85;;;0.80;;
21272;SDS011;36726;52.328;10.552;2023-04-24T06:08:39;0.93;;;0.75;;
21272;SDS011;36726;52.328;10.552;2023-04-24T06:11:09;2.30;;;0.80;;
21272;SDS011;36726;52.328;10.552;2023-04-24T06:13:37;1.38;;;1.00;;
21272;SDS011;36726;52.328;10.552;2023-04-24T06:16:36;2.97;;;1.00;;
21272;SDS011;36726;52.328;10.552;2023-04-24T06:19:16;1.77;;;1.00;;
21272;SDS011;36726;52.328;10.552;2023-04-24T06:21:43;2.22;;;1.02;;
21272;SDS011;36726;52.328;10.552;2023-04-24T06:24:10;4.25;;;1.10;;
21272;SDS011;36726;52.328;10.552;2023-04-24T06:26:36;1.92;;;1.05;;
21272;SDS011;36726;52.328;10.552;2023-04-24T06:29:06;1.95;;;1.02;;
21272;SDS011;36726;52.328;10.552;2023-04-24T06:31:34;1.90;;;1.00;;
21272;SDS011;36726;52.328;10.552;2023-04-24T06:34:03;1.90;;;0.85;;
21272;SDS011;36726;52.328;10.552;2023-04-24T06:36:30;2.53;;;0.98;;
21272;SDS011;36726;52.328;10.552;2023-04-24T06:38:57;1.27;;;1.02;;
21272;SDS011;36726;52.328;10.552;2023-04-24T06:41:25;1.38;;;1.00;;
21272;SDS011;36726;52.328;10.552;2023-04-24T06:43:52;1.65;;;1.10;;
21272;SDS011;36726;52.328;10.552;2023-04-24T06:46:18;1.20;;;0.60;;
21272;SDS011;36726;52.328;10.552;2023-04-24T06:48:45;1.00;;;0.70;;
21272;SDS011;36726;52.328;10.552;2023-04-24T06:51:11;0.68;;;0.60;;
21272;SDS011;36726;52.328;10.552;2023-04-24T06:53:38;0.90;;;0.60;;
21272;SDS011;36726;52.328;10.552;2023-04-24T06:56:05;0.43;;;0.35;;
21272;SDS011;36726;52.328;10.552;2023-04-24T06:58:31;0.60;;;0.40;;
21272;SDS011;36726;52.328;10.552;2023-04-24T07:00:58;0.88;;;0.60;;
21272;SDS011;36726;52.328;10.552;2023-04-24T07:03:25;0.75;;;0.30;;
21272;SDS011;36726;52.328;10.552;2023-04-24T07:05:52;0.45;;;0.30;;
21272;SDS011;36726;52.328;10.552;2023-04-24T07:08:19;1.17;;;0.50;;
21272;SDS011;36726;52.328;10.552;2023-04-24T07:10:49;1.60;;;0.57;;
21272;SDS011;36726;52.328;10.552;2023-04-24T07:13:17;1.63;;;0.50;;
21272;SDS011;36726;52.328;10.552;2023-04-24T07:15:44;0.63;;;0.50;;
21272;SDS011;36726;52.328;10.552;2023-04-24T07:18:10;0.98;;;0.60;;
21272;SDS011;36726;52.328;10.552;2023-04-24T07:20:37;1.08;;;0.70;;
21272;SDS011;36726;52.328;10.552;2023-04-24T07:23:03;2.17;;;0.70;;
21272;SDS011;36726;52.328;10.552;2023-04-24T07:25:30;1.35;;;0.70;;
21272;SDS011;36726;52.328;10.552;2023-04-24T07:27:58;1.60;;;0.50;;
21272;SDS011;36726;52.328;10.552;2023-04-24T07:30:24;0.60;;;0.50;;
21272;SDS011;36726;52.328;10.552;2023-04-24T07:32:51;1.08;;;0.75;;
21272;SDS011;36726;52.328;10.552;2023-04-24T07:35:18;0.98;;;0.60;;
21272;SDS011;36726;52.328;10.552;2023-04-24T07:37:46;3.42;;;0.80;;
21272;SDS011;36726;52.328;10.552;2023-04-24T07:40:13;0.50;;;0.40;;
21272;SDS011;36726;52.328;10.552;2023-04-24T07:42:40;0.90;;;0.60;;
21272;SDS011;36726;52.328;10.552;2023-04-24T07:45:06;2.65;;;0.63;;
21272;SDS011;36726;52.328;10.552;2023-04-24T07:47:33;1.63;;;0.90;;
21272;SDS011;36726;52.328;10.552;2023-04-24T07:50:00;1.85;;;1.00;;
21272;SDS011;36726;52.328;10.552;2023-04-24T07:52:27;2.42;;;0.90;;
21272;SDS011;36726;52.328;10.552;2023-04-24T07:54:54;1.13;;;0.90;;
21272;SDS011;36726;52.328;10.552;2023-04-24T07:57:25;2.35;;;1.42;;
21272;SDS011;36726;52.328;10.552;2023-04-24T07:59:51;1.15;;;0.95;;
21272;SDS011;36726;52.328;10.552;2023-04-24T08:02:18;1.33;;;1.10;;
21272;SDS011;36726;52.328;10.552;2023-04-24T08:04:44;3.20;;;1.13;;
21272;SDS011;36726;52.328;10.552;2023-04-24T08:07:12;2.20;;;1.00;;
21272;SDS011;36726;52.328;10.552;2023-04-24T08:09:40;1.25;;;0.93;;
21272;SDS011;36726;52.328;10.552;2023-04-24T08:12:06;1.73;;;1.00;;
21272;SDS011;36726;52.328;10.552;2023-04-24T08:14:33;1.92;;;0.80;;
21272;SDS011;36726;52.328;10.552;2023-04-24T08:17:00;1.35;;;1.10;;
21272;SDS011;36726;52.328;10.552;2023-04-24T08:19:27;1.17;;;0.75;;
21272;SDS011;36726;52.328;10.552;2023-04-24T08:21:54;2.08;;;0.85;;
21272;SDS011;36726;52.328;10.552;2023-04-24T08:24:21;1.73;;;1.25;;
21272;SDS011;36726;52.328;10.552;2023-04-24T08:26:48;3.47;;;1.15;;
21272;SDS011;36726;52.328;10.552;2023-04-24T08:29:16;3.28;;;1.30;;
21272;SDS011;36726;52.328;10.552;2023-04-24T08:31:43;3.70;;;1.30;;
21272;SDS011;36726;52.328;10.552;2023-04-24T08:34:09;1.85;;;1.50;;
21272;SDS011;36726;52.328;10.552;2023-04-24T08:36:36;2.13;;;1.35;;
21272;SDS011;36726;52.328;10.552;2023-04-24T08:39:12;1.60;;;1.38;;
21272;SDS011;36726;52.328;10.552;2023-04-24T08:41:40;1.63;;;1.30;;
21272;SDS011;36726;52.328;10.552;2023-04-24T08:44:09;2.00;;;1.30;;
21272;SDS011;36726;52.328;10.552;2023-04-24T08:46:37;2.55;;;1.55;;
21272;SDS011;36726;52.328;10.552;2023-04-24T08:49:04;2.10;;;1.70;;
21272;SDS011;36726;52.328;10.552;2023-04-24T08:51:31;3.03;;;1.95;;
21272;SDS011;36726;52.328;10.552;2023-04-24T08:53:58;3.55;;;2.00;;
21272;SDS011;36726;52.328;10.552;2023-04-24T08:56:24;2.10;;;1.63;;
21272;SDS011;36726;52.328;10.552;2023-04-24T08:58:53;3.50;;;2.33;;
21272;SDS011;36726;52.328;10.552;2023-04-24T09:01:20;2.38;;;2.03;;
21272;SDS011;36726;52.328;10.552;2023-04-24T09:03:49;2.95;;;2.00;;
21272;SDS011;36726;52.328;10.552;2023-04-24T09:06:18;3.00;;;2.20;;
21272;SDS011;36726;52.328;10.552;2023-04-24T09:08:45;4.47;;;2.35;;
21272;SDS011;36726;52.328;10.552;2023-04-24T09:11:16;4.32;;;2.55;;
21272;SDS011;36726;52.328;10.552;2023-04-24T09:13:43;4.20;;;2.70;;
21272;SDS011;36726;52.328;10.552;2023-04-24T09:16:09;3.40;;;2.75;;
21272;SDS011;36726;52.328;10.552;2023-04-24T09:18:36;6.50;;;3.17;;
21272;SDS011;36726;52.328;10.552;2023-04-24T09:21:06;4.40;;;3.17;;
21272;SDS011;36726;52.328;10.552;2023-04-24T09:23:37;4.40;;;2.83;;
21272;SDS011;36726;52.328;10.552;2023-04-24T09:26:04;5.00;;;2.83;;
21272;SDS011;36726;52.328;10.552;2023-04-24T09:28:32;3.53;;;2.65;;
21272;SDS011;36726;52.328;10.552;2023-04-24T09:31:06;3.83;;;2.80;;
21272;SDS011;36726;52.328;10.552;2023-04-24T09:33:53;4.13;;;2.85;;
21272;SDS011;36726;52.328;10.552;2023-04-24T09:39:08;5.55;;;3.40;;
21272;SDS011;36726;52.328;10.552;2023-04-24T09:41:50;3.67;;;2.70;;
21272;SDS011;36726;52.328;10.552;2023-04-24T09:44:19;4.15;;;2.85;;
21272;SDS011;36726;52.328;10.552;2023-04-24T09:46:50;3.65;;;2.45;;
21272;SDS011;36726;52.328;10.552;2023-04-24T09:49:24;5.88;;;2.60;;
21272;SDS011;36726;52.328;10.552;2023-04-24T09:51:52;5.05;;;3.00;;
21272;SDS011;36726;52.328;10.552;2023-04-24T09:54:29;3.30;;;2.25;;
21272;SDS011;36726;52.328;10.552;2023-04-24T09:56:56;3.25;;;2.10;;
21272;SDS011;36726;52.328;10.552;2023-04-24T09:59:23;3.30;;;2.50;;
21272;SDS011;36726;52.328;10.552;2023-04-24T10:01:51;2.97;;;1.80;;
21272;SDS011;36726;52.328;10.552;2023-04-24T10:06:53;2.55;;;1.90;;
21272;SDS011;36726;52.328;10.552;2023-04-24T10:09:22;2.20;;;1.58;;
21272;SDS011;36726;52.328;10.552;2023-04-24T10:11:51;2.95;;;2.03;;
21272;SDS011;36726;52.328;10.552;2023-04-24T10:14:23;2.38;;;1.80;;
21272;SDS011;36726;52.328;10.552;2023-04-24T10:16:53;3.20;;;2.17;;
21272;SDS011;36726;52.328;10.552;2023-04-24T10:19:21;3.67;;;2.00;;
21272;SDS011;36726;52.328;10.552;2023-04-24T10:21:52;3.17;;;1.92;;
21272;SDS011;36726;52.328;10.552;2023-04-24T10:24:19;2.83;;;2.10;;
21272;SDS011;36726;52.328;10.552;2023-04-24T10:26:47;4.22;;;2.08;;
21272;SDS011;36726;52.328;10.552;2023-04-24T10:29:16;2.92;;;1.75;;
21272;SDS011;36726;52.328;10.552;2023-04-24T10:31:44;3.05;;;1.83;;
21272;SDS011;36726;52.328;10.552;2023-04-24T10:34:15;2.30;;;1.70;;
21272;SDS011;36726;52.328;10.552;2023-04-24T10:36:48;2.63;;;2.00;;
21272;SDS011;36726;52.328;10.552;2023-04-24T10:39:22;2.50;;;1.75;;
21272;SDS011;36726;52.328;10.552;2023-04-24T10:41:54;2.15;;;1.77;;
21272;SDS011;36726;52.328;10.552;2023-04-24T10:44:24;2.47;;;1.85;;
21272;SDS011;36726;52.328;10.552;2023-04-24T10:46:54;2.63;;;1.70;;
21272;SDS011;36726;52.328;10.552;2023-04-24T10:49:28;2.00;;;1.75;;
21272;SDS011;36726;52.328;10.552;2023-04-24T10:52:00;3.00;;;1.63;;
21272;SDS011;36726;52.328;10.552;2023-04-24T10:54:48;2.78;;;1.48;;
21272;SDS011;36726;52.328;10.552;2023-04-24T10:59:46;1.35;;;1.25;;
21272;SDS011;36726;52.328;10.552;2023-04-24T11:02:14;2.72;;;1.63;;
21272;SDS011;36726;52.328;10.552;2023-04-24T11:04:41;2.30;;;1.70;;
21272;SDS011;36726;52.328;10.552;2023-04-24T11:07:09;3.25;;;1.38;;
21272;SDS011;36726;52.328;10.552;2023-04-24T11:09:37;2.30;;;1.52;;
21272;SDS011;36726;52.328;10.552;2023-04-24T11:12:07;2.85;;;1.60;;
21272;SDS011;36726;52.328;10.552;2023-04-24T11:17:35;1.77;;;1.20;;
21272;SDS011;36726;52.328;10.552;2023-04-24T11:20:05;0.95;;;0.80;;
21272;SDS011;36726;52.328;10.552;2023-04-24T11:22:52;5.13;;;1.50;;
21272;SDS011;36726;52.328;10.552;2023-04-24T11:25:24;3.08;;;0.90;;
21272;SDS011;36726;52.328;10.552;2023-04-24T11:27:51;3.45;;;1.30;;
21272;SDS011;36726;52.328;10.552;2023-04-24T11:30:30;1.10;;;1.00;;
21272;SDS011;36726;52.328;10.552;2023-04-24T11:33:02;4.65;;;3.00;;
21272;SDS011;36726;52.328;10.552;2023-04-24T11:35:34;1.50;;;0.93;;
21272;SDS011;36726;52.328;10.552;2023-04-24T11:38:05;1.30;;;1.10;;
21272;SDS011;36726;52.328;10.552;2023-04-24T11:40:49;3.35;;;0.93;;
21272;SDS011;36726;52.328;10.552;2023-04-24T11:43:16;4.40;;;0.90;;
21272;SDS011;36726;52.328;10.552;2023-04-24T11:45:47;6.03;;;0.90;;
21272;SDS011;36726;52.328;10.552;2023-04-24T11:48:18;0.70;;;0.70;;
21272;SDS011;36726;52.328;10.552;2023-04-24T11:50:48;0.70;;;0.70;;
21272;SDS011;36726;52.328;10.552;2023-04-24T11:53:15;1.38;;;0.90;;
21272;SDS011;36726;52.328;10.552;2023-04-24T11:55:42;1.48;;;0.88;;
21272;SDS011;36726;52.328;10.552;2023-04-24T11:58:08;1.63;;;0.95;;
21272;SDS011;36726;52.328;10.552;2023-04-24T12:00:35;1.33;;;0.82;;
21272;SDS011;36726;52.328;10.552;2023-04-24T12:03:08;1.98;;;0.70;;
21272;SDS011;36726;52.328;10.552;2023-04-24T12:05:37;1.30;;;0.80;;
21272;SDS011;36726;52.328;10.552;2023-04-24T12:08:04;2.35;;;0.93;;
21272;SDS011;36726;52.328;10.552;2023-04-24T12:10:31;6.10;;;1.27;;
21272;SDS011;36726;52.328;10.552;2023-04-24T12:12:59;1.27;;;0.77;;
21272;SDS011;36726;52.328;10.552;2023-04-24T12:15:26;1.63;;;0.77;;
21272;SDS011;36726;52.328;10.552;2023-04-24T12:17:54;0.80;;;0.70;;
21272;SDS011;36726;52.328;10.552;2023-04-24T12:20:29;1.38;;;1.10;;
21272;SDS011;36726;52.328;10.552;2023-04-24T12:22:58;1.55;;;1.15;;
21272;SDS011;36726;52.328;10.552;2023-04-24T12:25:26;1.73;;;1.13;;
21272;SDS011;36726;52.328;10.552;2023-04-24T12:27:55;1.17;;;0.80;;
21272;SDS011;36726;52.328;10.552;2023-04-24T12:30:43;1.20;;;1.08;;
21272;SDS011;36726;52.328;10.552;2023-04-24T12:33:18;2.05;;;1.05;;
21272;SDS011;36726;52.328;10.552;2023-04-24T12:35:47;1.70;;;0.85;;
21272;SDS011;36726;52.328;10.552;2023-04-24T12:38:15;1.02;;;0.90;;
21272;SDS011;36726;52.328;10.552;2023-04-24T12:40:42;1.05;;;0.80;;
21272;SDS011;36726;52.328;10.552;2023-04-24T12:43:13;2.00;;;0.90;;
21272;SDS011;36726;52.328;10.552;2023-04-24T12:45:42;1.42;;;1.15;;
21272;SDS011;36726;52.328;10.552;2023-04-24T12:48:08;0.93;;;0.93;;
21272;SDS011;36726;52.328;10.552;2023-04-24T12:50:35;1.65;;;0.90;;
21272;SDS011;36726;52.328;10.552;2023-04-24T12:53:02;1.50;;;0.88;;
21272;SDS011;36726;52.328;10.552;2023-04-24T12:55:29;1.52;;;0.95;;
21272;SDS011;36726;52.328;10.552;2023-04-24T12:57:55;1.50;;;1.30;;
21272;SDS011;36726;52.328;10.552;2023-04-24T13:00:22;1.10;;;0.80;;
21272;SDS011;36726;52.328;10.552;2023-04-24T13:02:49;0.40;;;0.40;;
21272;SDS011;36726;52.328;10.552;2023-04-24T13:05:16;2.13;;;0.40;;
21272;SDS011;36726;52.328;10.552;2023-04-24T13:07:43;0.32;;;0.30;;
21272;SDS011;36726;52.328;10.552;2023-04-24T13:10:10;0.65;;;0.30;;
21272;SDS011;36726;52.328;10.552;2023-04-24T13:12:37;0.40;;;0.30;;
21272;SDS011;36726;52.328;10.552;2023-04-24T13:15:03;1.02;;;0.30;;
21272;SDS011;36726;52.328;10.552;2023-04-24T13:17:31;0.52;;;0.30;;
21272;SDS011;36726;52.328;10.552;2023-04-24T13:19:57;1.83;;;0.40;;
21272;SDS011;36726;52.328;10.552;2023-04-24T13:22:24;0.98;;;0.40;;
21272;SDS011;36726;52.328;10.552;2023-04-24T13:24:51;0.68;;;0.40;;
21272;SDS011;36726;52.328;10.552;2023-04-24T13:27:17;0.50;;;0.30;;
21272;SDS011;36726;52.328;10.552;2023-04-24T13:29:44;0.47;;;0.45;;
21272;SDS011;36726;52.328;10.552;2023-04-24T13:32:11;1.02;;;0.60;;
21272;SDS011;36726;52.328;10.552;2023-04-24T13:34:39;0.70;;;0.55;;
21272;SDS011;36726;52.328;10.552;2023-04-24T13:37:05;0.82;;;0.60;;
21272;SDS011;36726;52.328;10.552;2023-04-24T13:39:32;0.95;;;0.43;;
21272;SDS011;36726;52.328;10.552;2023-04-24T13:41:59;0.60;;;0.40;;
21272;SDS011;36726;52.328;10.552;2023-04-24T13:44:29;0.65;;;0.52;;
21272;SDS011;36726;52.328;10.552;2023-04-24T13:46:57;5.93;;;0.90;;
21272;SDS011;36726;52.328;10.552;2023-04-24T13:49:25;1.48;;;0.70;;
21272;SDS011;36726;52.328;10.552;2023-04-24T13:51:53;0.70;;;0.50;;
21272;SDS011;36726;52.328;10.552;2023-04-24T13:54:21;1.05;;;0.50;;
21272;SDS011;36726;52.328;10.552;2023-04-24T13:56:49;1.02;;;0.57;;
21272;SDS011;36726;52.328;10.552;2023-04-24T13:59:16;0.65;;;0.60;;
21272;SDS011;36726;52.328;10.552;2023-04-24T14:01:43;5.05;;;0.93;;
21272;SDS011;36726;52.328;10.552;2023-04-24T14:04:11;1.75;;;0.80;;
21272;SDS011;36726;52.328;10.552;2023-04-24T14:06:38;0.93;;;0.82;;
21272;SDS011;36726;52.328;10.552;2023-04-24T14:09:06;5.85;;;0.70;;
21272;SDS011;36726;52.328;10.552;2023-04-24T14:11:33;1.75;;;0.63;;
21272;SDS011;36726;52.328;10.552;2023-04-24T14:14:00;1.38;;;0.50;;
21272;SDS011;36726;52.328;10.552;2023-04-24T14:16:27;0.47;;;0.47;;
21272;SDS011;36726;52.328;10.552;2023-04-24T14:18:55;0.63;;;0.55;;
21272;SDS011;36726;52.328;10.552;2023-04-24T14:21:22;0.80;;;0.50;;
21272;SDS011;36726;52.328;10.552;2023-04-24T14:23:48;1.73;;;0.80;;
21272;SDS011;36726;52.328;10.552;2023-04-24T14:26:15;0.82;;;0.50;;
21272;SDS011;36726;52.328;10.552;2023-04-24T14:28:42;2.28;;;0.60;;
21272;SDS011;36726;52.328;10.552;2023-04-24T14:31:08;1.40;;;0.55;;
21272;SDS011;36726;52.328;10.552;2023-04-24T14:33:36;1.50;;;0.50;;
21272;SDS011;36726;52.328;10.552;2023-04-24T14:36:02;0.40;;;0.40;;
21272;SDS011;36726;52.328;10.552;2023-04-24T14:38:30;0.57;;;0.50;;
21272;SDS011;36726;52.328;10.552;2023-04-24T14:40:57;0.47;;;0.38;;
21272;SDS011;36726;52.328;10.552;2023-04-24T14:43:32;0.68;;;0.50;;
21272;SDS011;36726;52.328;10.552;2023-04-24T14:46:01;1.02;;;0.63;;
21272;SDS011;36726;52.328;10.552;2023-04-24T14:48:28;0.75;;;0.40;;
21272;SDS011;36726;52.328;10.552;2023-04-24T14:50:55;0.30;;;0.30;;